Time;durP1;ratioP1;P1;durP2;ratioP2;P2;SDS_P1;SDS_P2;PMS_P1;PMS_P2;Temp;Humidity;BMP_temperature;BMP_pressure;BME280_temperature;BME280_humidity;BME280_pressure;Samples;Min_cycle;Max_cycle;Signal;HPM_P1;HPM_P2
2022/09/05 00:02:11;;;;;;;5.00;3.47;;;18.90;99.90;;;;;;7402850;19;20102;-76
2022/09/05 00:04:49;;;;;;;3.75;3.15;;;18.80;99.90;;;;;;7401138;19;20092;-76
2022/09/05 00:07:20;;;;;;;6.18;3.40;;;18.80;99.90;;;;;;7398590;19;20018;-76
2022/09/05 00:10:07;;;;;;;4.72;3.55;;;18.70;99.90;;;;;;7399602;19;20499;-76
2022/09/05 00:12:35;;;;;;;4.43;3.45;;;18.70;99.90;;;;;;7398571;19;20014;-77
2022/09/05 00:15:26;;;;;;;4.95;3.92;;;18.70;99.90;;;;;;7400285;19;20022;-77
2022/09/05 00:18:00;;;;;;;7.70;3.67;;;18.70;99.90;;;;;;7400943;19;20018;-77
2022/09/05 00:20:51;;;;;;;4.97;3.58;;;18.60;99.90;;;;;;7399200;19;20483;-77
2022/09/05 00:23:29;;;;;;;5.82;3.85;;;18.60;99.90;;;;;;7399127;19;20015;-77
2022/09/05 00:26:06;;;;;;;6.35;3.40;;;18.60;99.90;;;;;;7399603;19;20022;-77
2022/09/05 00:28:44;;;;;;;4.53;3.80;;;18.50;99.90;;;;;;7398592;19;20025;-77
2022/09/05 00:31:44;;;;;;;3.85;3.40;;;18.50;99.90;;;;;;7401581;19;20483;-77
2022/09/05 00:34:40;;;;;;;5.60;3.75;;;18.40;99.90;;;;;;7400353;19;20759;-76
2022/09/05 00:37:09;;;;;;;4.93;3.88;;;18.40;99.90;;;;;;7397056;19;20534;-76
2022/09/05 00:39:40;;;;;;;4.18;3.78;;;18.40;99.90;;;;;;7398986;19;20419;-76
2022/09/05 00:42:14;;;;;;;5.82;4.10;;;18.30;99.90;;;;;;7399953;19;20015;-77
2022/09/05 00:44:57;;;;;;;6.72;4.20;;;18.30;99.90;;;;;;7400209;19;20014;-76
2022/09/05 00:47:32;;;;;;;5.20;3.70;;;18.30;99.90;;;;;;7398275;19;20029;-77
2022/09/05 00:50:07;;;;;;;6.22;4.00;;;18.20;99.90;;;;;;7397877;19;20388;-77
2022/09/05 00:52:47;;;;;;;5.07;3.70;;;18.20;99.90;;;;;;7400551;19;20014;-77
2022/09/05 00:55:47;;;;;;;4.63;3.92;;;18.20;99.90;;;;;;7396752;19;20011;-77
2022/09/05 00:58:43;;;;;;;4.53;3.90;;;18.20;99.90;;;;;;7397775;19;20035;-77
2022/09/05 01:01:30;;;;;;;5.97;3.80;;;18.20;99.90;;;;;;7399589;19;20391;-76
2022/09/05 01:04:15;;;;;;;7.35;4.10;;;18.20;99.90;;;;;;7397899;19;20038;-76
2022/09/05 01:06:59;;;;;;;5.15;3.60;;;18.20;99.90;;;;;;7397072;19;20045;-77
2022/09/05 01:09:38;;;;;;;5.07;3.78;;;18.20;99.90;;;;;;7398964;19;20501;-77
2022/09/05 01:12:25;;;;;;;5.43;3.90;;;18.20;99.90;;;;;;7398110;19;20478;-77
2022/09/05 01:15:21;;;;;;;7.65;4.65;;;18.20;99.90;;;;;;7398067;19;20019;-76
2022/09/05 01:18:01;;;;;;;5.72;4.07;;;18.30;99.90;;;;;;7396116;19;20019;-77
2022/09/05 01:20:40;;;;;;;4.28;3.75;;;18.30;99.90;;;;;;7398754;19;20026;-77
2022/09/05 01:23:56;;;;;;;7.57;3.90;;;18.30;99.90;;;;;;7400076;19;20011;-77
2022/09/05 01:26:34;;;;;;;6.93;4.22;;;18.30;99.90;;;;;;7397305;19;20024;-77
2022/09/05 01:29:28;;;;;;;5.65;3.88;;;18.30;99.90;;;;;;7398487;19;20022;-77
2022/09/05 01:32:17;;;;;;;5.57;3.83;;;18.30;99.90;;;;;;7398828;19;20025;-77
2022/09/05 01:34:51;;;;;;;3.88;3.47;;;18.30;99.90;;;;;;7397045;19;20020;-76
2022/09/05 01:37:17;;;;;;;5.22;3.97;;;18.30;99.90;;;;;;7395222;19;20019;-76
2022/09/05 01:39:49;;;;;;;4.75;3.70;;;18.20;99.90;;;;;;7397895;19;20010;-77
2022/09/05 01:42:28;;;;;;;4.22;3.75;;;18.20;99.90;;;;;;7397394;19;20077;-77
2022/09/05 01:45:06;;;;;;;6.65;3.60;;;18.20;99.90;;;;;;7398038;19;20025;-77
2022/09/05 01:48:02;;;;;;;5.25;3.55;;;18.30;99.90;;;;;;7395955;19;20018;-77
2022/09/05 01:51:06;;;;;;;6.95;4.18;;;18.20;99.90;;;;;;7396285;19;20018;-77
2022/09/05 01:53:43;;;;;;;5.30;3.72;;;18.20;99.90;;;;;;7394031;19;20015;-77
2022/09/05 01:56:34;;;;;;;4.75;3.78;;;18.20;99.90;;;;;;7396366;19;20098;-76
2022/09/05 01:58:59;;;;;;;3.90;3.60;;;18.30;99.90;;;;;;7398746;19;20059;-76
2022/09/05 02:01:34;;;;;;;4.30;3.55;;;18.30;99.90;;;;;;7396939;19;20523;-76
2022/09/05 02:04:24;;;;;;;4.57;4.10;;;18.30;99.90;;;;;;7396706;19;20022;-77
2022/09/05 02:07:25;;;;;;;4.60;4.20;;;18.20;99.90;;;;;;7393100;19;20078;-77
2022/09/05 02:10:18;;;;;;;6.70;4.18;;;18.20;99.90;;;;;;7391595;19;20094;-77
2022/09/05 02:12:44;;;;;;;6.50;4.00;;;18.20;99.90;;;;;;7397833;19;20050;-77
2022/09/05 02:15:25;;;;;;;4.82;3.70;;;18.10;99.90;;;;;;7395121;19;20011;-77
2022/09/05 02:17:55;;;;;;;4.85;4.05;;;18.10;99.90;;;;;;7397186;19;20022;-77
2022/09/05 02:20:30;;;;;;;4.25;3.85;;;18.10;99.90;;;;;;7394121;19;20025;-77
2022/09/05 02:23:06;;;;;;;5.15;3.70;;;18.10;99.90;;;;;;7397184;19;20389;-77
2022/09/05 02:25:54;;;;;;;5.07;3.70;;;18.10;99.90;;;;;;7396141;19;20010;-77
2022/09/05 02:28:40;;;;;;;5.70;4.47;;;18.00;99.90;;;;;;7397087;19;20119;-77
2022/09/05 02:31:43;;;;;;;6.07;3.67;;;18.20;99.90;;;;;;7397403;19;20015;-77
2022/09/05 02:34:24;;;;;;;4.45;4.00;;;18.10;99.90;;;;;;7393142;19;20042;-77
2022/09/05 02:37:19;;;;;;;6.28;4.15;;;18.10;99.90;;;;;;7391504;19;20034;-77
2022/09/05 02:40:04;;;;;;;5.22;3.92;;;18.00;99.90;;;;;;7394854;19;20385;-77
2022/09/05 02:42:44;;;;;;;7.03;4.07;;;18.00;99.90;;;;;;7397109;19;20023;-77
2022/09/05 02:45:39;;;;;;;4.97;4.20;;;18.00;99.90;;;;;;7395675;19;20018;-77
2022/09/05 02:48:32;;;;;;;4.57;3.88;;;18.00;99.90;;;;;;7393436;19;20061;-77
2022/09/05 02:51:23;;;;;;;4.22;3.67;;;17.90;99.90;;;;;;7396810;19;20015;-77
2022/09/05 02:53:54;;;;;;;5.03;4.53;;;18.00;99.90;;;;;;7397018;19;20039;-77
2022/09/05 02:56:28;;;;;;;5.00;4.13;;;17.90;99.90;;;;;;7394135;19;20098;-77
2022/09/05 02:59:38;;;;;;;4.80;4.28;;;17.90;99.90;;;;;;7395401;19;20047;-77
2022/09/05 03:02:25;;;;;;;6.75;4.57;;;17.80;99.90;;;;;;7391330;19;20551;-78
2022/09/05 03:04:54;;;;;;;5.95;4.03;;;17.80;99.90;;;;;;7395794;19;20425;-77
2022/09/05 03:07:57;;;;;;;7.82;4.78;;;17.70;99.90;;;;;;7393770;19;20014;-77
2022/09/05 03:11:10;;;;;;;7.75;4.45;;;17.70;99.90;;;;;;7395558;19;20010;-77
2022/09/05 03:13:47;;;;;;;5.65;4.30;;;17.70;99.90;;;;;;7393943;19;20035;-77
2022/09/05 03:16:34;;;;;;;5.55;4.10;;;17.60;99.90;;;;;;7393992;19;20022;-77
2022/09/05 03:19:37;;;;;;;5.53;4.53;;;17.60;99.90;;;;;;7394178;19;20044;-77
2022/09/05 03:22:21;;;;;;;5.95;4.68;;;17.60;99.90;;;;;;7402631;19;20014;-77
2022/09/05 03:25:16;;;;;;;4.90;4.43;;;17.50;99.90;;;;;;7403422;19;20018;-77
2022/09/05 03:28:15;;;;;;;4.82;4.40;;;17.40;99.90;;;;;;7399987;19;20010;-77
2022/09/05 03:30:58;;;;;;;6.13;4.50;;;17.40;99.90;;;;;;7400216;19;20423;-77
2022/09/05 03:33:26;;;;;;;;;;;17.30;99.90;;;;;;7401416;19;20022;-77
2022/09/05 03:36:15;;;;;;;6.50;4.60;;;17.30;99.90;;;;;;7397932;19;19911;-77
2022/09/05 03:39:01;;;;;;;4.65;4.18;;;17.20;99.90;;;;;;7402427;19;20366;-77
2022/09/05 03:41:53;;;;;;;5.72;4.65;;;17.10;99.90;;;;;;7402918;19;20015;-77
2022/09/05 03:44:56;;;;;;;4.88;4.10;;;17.20;99.90;;;;;;7401523;19;20313;-77
2022/09/05 03:47:48;;;;;;;5.25;4.28;;;17.10;99.90;;;;;;7400126;19;20029;-77
2022/09/05 03:50:32;;;;;;;5.68;3.95;;;17.00;99.90;;;;;;7400219;19;20391;-77
2022/09/05 03:53:35;;;;;;;5.47;4.63;;;17.00;99.90;;;;;;7401235;19;20010;-76
2022/09/05 03:56:33;;;;;;;4.95;4.20;;;17.00;99.90;;;;;;7399288;19;20096;-77
2022/09/05 03:59:09;;;;;;;5.72;4.30;;;17.00;99.90;;;;;;7397297;19;20372;-77
2022/09/05 04:01:41;;;;;;;6.25;4.32;;;16.90;99.90;;;;;;7400620;19;20015;-77
2022/09/05 04:04:43;;;;;;;5.30;4.10;;;16.90;99.90;;;;;;7401561;19;20039;-77
2022/09/05 04:07:19;;;;;;;4.43;4.03;;;16.90;99.90;;;;;;7397314;19;20010;-77
2022/09/05 04:09:49;;;;;;;7.75;4.10;;;16.90;99.90;;;;;;7403046;19;20026;-77
2022/09/05 04:12:19;;;;;;;4.78;4.38;;;16.90;99.90;;;;;;7400395;19;20074;-77
2022/09/05 04:14:54;;;;;;;4.47;3.95;;;16.90;99.90;;;;;;7400623;19;20010;-77
2022/09/05 04:17:22;;;;;;;4.53;4.05;;;16.90;99.90;;;;;;7398405;19;20021;-77
2022/09/05 04:20:18;;;;;;;4.93;4.43;;;16.80;99.90;;;;;;7398950;19;20025;-77
2022/09/05 04:23:09;;;;;;;5.30;4.45;;;16.80;99.90;;;;;;7400949;19;20079;-77
2022/09/05 04:25:53;;;;;;;5.25;4.32;;;16.70;99.90;;;;;;7402433;19;20011;-77
2022/09/05 04:28:43;;;;;;;6.50;4.40;;;16.70;99.90;;;;;;7398537;19;20370;-77
2022/09/05 04:31:25;;;;;;;5.07;4.35;;;16.70;99.90;;;;;;7399105;19;20026;-77
2022/09/05 04:33:56;;;;;;;5.80;4.55;;;16.70;99.90;;;;;;7395196;19;20015;-77
2022/09/05 04:36:35;;;;;;;6.07;4.32;;;16.60;99.90;;;;;;7399392;19;20094;-77
2022/09/05 04:39:19;;;;;;;5.15;4.43;;;16.60;99.90;;;;;;7399811;19;20739;-77
2022/09/05 04:41:50;;;;;;;7.10;4.75;;;16.60;99.90;;;;;;7398037;19;20019;-78
2022/09/05 04:44:25;;;;;;;6.18;4.43;;;16.60;99.90;;;;;;7397170;19;20006;-77
2022/09/05 04:46:55;;;;;;;7.20;4.60;;;16.50;99.90;;;;;;7398401;19;20031;-77
2022/09/05 04:49:24;;;;;;;5.63;4.45;;;16.60;99.90;;;;;;7397638;19;20355;-77
2022/09/05 04:52:31;;;;;;;6.20;4.40;;;16.50;99.90;;;;;;7398141;19;20014;-77
2022/09/05 04:55:22;;;;;;;7.32;5.05;;;16.50;99.90;;;;;;7398440;19;20029;-76
2022/09/05 04:57:58;;;;;;;5.85;4.50;;;16.50;99.90;;;;;;7397606;19;20019;-77
2022/09/05 05:00:47;;;;;;;5.15;4.43;;;16.50;99.90;;;;;;7400587;19;20036;-77
2022/09/05 05:03:45;;;;;;;5.25;4.53;;;16.50;99.90;;;;;;7398394;19;20014;-77
2022/09/05 05:06:32;;;;;;;5.47;4.82;;;16.40;99.90;;;;;;7398181;19;20011;-77
2022/09/05 05:09:20;;;;;;;4.93;4.00;;;16.30;99.90;;;;;;7398747;19;20014;-77
2022/09/05 05:12:09;;;;;;;8.55;5.00;;;16.40;99.90;;;;;;7396988;19;20391;-78
2022/09/05 05:14:51;;;;;;;6.60;4.70;;;16.40;99.90;;;;;;7396883;19;20010;-77
2022/09/05 05:17:40;;;;;;;5.35;4.18;;;16.40;99.90;;;;;;7396835;19;20372;-77
2022/09/05 05:20:19;;;;;;;6.00;4.32;;;16.30;99.90;;;;;;7396331;19;20043;-78
2022/09/05 05:22:57;;;;;;;5.40;4.70;;;16.30;99.90;;;;;;7399373;19;20081;-78
2022/09/05 05:25:25;;;;;;;6.25;4.53;;;16.30;99.90;;;;;;7399661;19;20014;-77
2022/09/05 05:28:09;;;;;;;5.43;4.78;;;16.20;99.90;;;;;;7395829;19;20018;-77
2022/09/05 05:30:36;;;;;;;5.25;4.75;;;16.20;99.90;;;;;;7397609;19;20018;-77
2022/09/05 05:33:21;;;;;;;4.70;3.70;;;16.20;99.90;;;;;;7394326;19;20011;-78
2022/09/05 05:35:48;;;;;;;5.72;4.72;;;16.20;99.90;;;;;;7398168;19;20053;-79
2022/09/05 05:38:42;;;;;;;5.20;4.45;;;16.20;99.90;;;;;;7398911;19;20370;-77
2022/09/05 05:41:51;;;;;;;6.65;3.97;;;16.20;99.90;;;;;;7398726;19;20479;-78
2022/09/05 05:44:25;;;;;;;6.65;4.50;;;16.30;99.90;;;;;;7393157;19;20022;-78
2022/09/05 05:47:17;;;;;;;6.88;4.78;;;16.30;99.90;;;;;;7395234;19;20018;-78
2022/09/05 05:50:06;;;;;;;5.97;4.80;;;16.30;99.90;;;;;;7395380;19;20479;-77
2022/09/05 05:53:14;;;;;;;5.93;4.53;;;16.30;99.90;;;;;;7398179;19;20043;-77
2022/09/05 05:56:11;;;;;;;6.50;4.80;;;16.30;99.90;;;;;;7394301;19;20487;-77
2022/09/05 05:59:15;;;;;;;5.97;4.43;;;16.40;99.90;;;;;;7392954;19;20014;-77
2022/09/05 06:01:57;;;;;;;5.68;4.10;;;16.40;99.90;;;;;;7394735;19;20015;-77
2022/09/05 06:05:06;;;;;;;6.38;4.60;;;16.40;99.90;;;;;;7396194;19;20015;-77
2022/09/05 06:07:52;;;;;;;7.10;4.70;;;16.40;99.90;;;;;;7391368;19;20014;-81
2022/09/05 06:10:46;;;;;;;4.97;4.28;;;16.50;99.90;;;;;;7392595;19;20011;-76
2022/09/05 06:13:33;;;;;;;4.70;4.30;;;16.50;99.90;;;;;;7397728;19;20015;-76
2022/09/05 06:16:16;;;;;;;5.75;4.63;;;16.50;99.90;;;;;;7394498;19;20010;-76
2022/09/05 06:19:25;;;;;;;5.10;4.60;;;16.60;99.90;;;;;;7397358;19;20014;-76
2022/09/05 06:22:16;;;;;;;6.95;4.40;;;16.70;99.90;;;;;;7378955;19;20518;-76
2022/09/05 06:25:00;;;;;;;5.00;4.60;;;16.70;99.90;;;;;;7374255;19;20081;-76
2022/09/05 06:27:45;;;;;;;7.25;4.95;;;16.70;99.90;;;;;;7378445;19;20073;-76
2022/09/05 06:30:21;;;;;;;5.97;4.50;;;16.70;99.90;;;;;;7376104;19;20014;-76
2022/09/05 06:33:28;;;;;;;5.68;4.90;;;16.80;99.90;;;;;;7371035;19;20022;-76
2022/09/05 06:36:24;;;;;;;5.63;5.03;;;16.80;99.90;;;;;;7375974;19;20050;-77
2022/09/05 06:39:01;;;;;;;5.18;4.68;;;16.90;99.90;;;;;;7378067;19;20014;-76
2022/09/05 06:42:02;;;;;;;8.23;4.90;;;17.00;99.90;;;;;;7378247;19;20046;-77
2022/09/05 06:45:01;;;;;;;6.10;5.13;;;17.10;99.90;;;;;;7379331;19;20369;-77
2022/09/05 06:47:29;;;;;;;5.72;4.80;;;17.20;99.90;;;;;;7374269;19;20047;-76
2022/09/05 06:50:04;;;;;;;5.47;4.60;;;17.30;99.90;;;;;;7376709;19;20015;-77
2022/09/05 06:52:56;;;;;;;6.80;4.72;;;17.30;99.90;;;;;;7386520;19;20015;-77
2022/09/05 06:55:34;;;;;;;5.75;5.15;;;17.30;99.90;;;;;;7394825;19;20019;-77
2022/09/05 06:58:21;;;;;;;5.80;5.20;;;17.30;99.90;;;;;;7404137;19;20018;-77
2022/09/05 07:00:53;;;;;;;5.60;4.97;;;17.40;99.90;;;;;;7403727;19;20010;-77
2022/09/05 07:03:23;;;;;;;6.60;5.70;;;17.50;99.90;;;;;;7403675;19;20018;-77
2022/09/05 07:06:15;;;;;;;6.38;4.72;;;18.20;99.90;;;;;;7400217;19;20011;-76
2022/09/05 07:08:43;;;;;;;7.60;5.40;;;19.60;99.90;;;;;;7400189;19;20011;-77
2022/09/05 07:11:19;;;;;;;6.30;5.03;;;20.30;99.90;;;;;;7402108;19;20039;-77
2022/09/05 07:13:59;;;;;;;7.70;5.40;;;20.60;99.90;;;;;;7400046;19;20475;-77
2022/09/05 07:16:42;;;;;;;7.72;5.72;;;20.70;99.90;;;;;;7398668;19;20035;-77
2022/09/05 07:19:34;;;;;;;7.28;5.60;;;20.80;99.90;;;;;;7400157;19;20035;-77
2022/09/05 07:22:27;;;;;;;7.25;5.05;;;21.20;99.90;;;;;;7403144;19;20070;-77
2022/09/05 07:24:55;;;;;;;11.13;5.28;;;21.70;99.90;;;;;;7399853;19;20029;-77
2022/09/05 07:27:33;;;;;;;7.18;5.10;;;22.00;99.90;;;;;;7398777;19;20010;-76
2022/09/05 07:30:00;;;;;;;6.68;4.95;;;22.40;99.90;;;;;;7401016;19;20015;-77
2022/09/05 07:32:38;;;;;;;7.35;5.05;;;22.90;99.90;;;;;;7403706;19;20022;-77
2022/09/05 07:35:06;;;;;;;7.78;5.07;;;23.20;99.80;;;;;;7399808;19;20037;-77
2022/09/05 07:37:41;;;;;;;6.28;4.72;;;23.40;99.50;;;;;;7394433;19;20479;-77
2022/09/05 07:40:12;;;;;;;7.90;4.80;;;23.50;99.00;;;;;;7402654;19;20018;-77
2022/09/05 07:43:05;;;;;;;7.38;4.22;;;23.60;99.30;;;;;;7401669;19;20089;-77
2022/09/05 07:45:32;;;;;;;7.15;4.55;;;24.10;99.40;;;;;;7397729;19;20353;-77
2022/09/05 07:48:10;;;;;;;6.70;3.67;;;24.40;98.60;;;;;;7397398;19;20014;-77
2022/09/05 07:50:51;;;;;;;5.95;4.53;;;24.80;98.30;;;;;;7402208;19;20031;-76
2022/09/05 07:53:18;;;;;;;5.93;4.65;;;24.50;97.60;;;;;;7400324;19;20022;-76
2022/09/05 07:55:50;;;;;;;5.35;4.00;;;24.40;97.70;;;;;;7398340;19;20014;-76
2022/09/05 07:58:20;;;;;;;5.65;4.95;;;24.90;97.90;;;;;;7401842;19;20010;-77
2022/09/05 08:00:51;;;;;;;9.35;4.30;;;24.90;97.50;;;;;;7397354;19;20018;-76
2022/09/05 08:03:24;;;;;;;6.85;4.63;;;25.40;97.40;;;;;;7401559;19;20468;-77
2022/09/05 08:05:53;;;;;;;8.02;4.80;;;25.30;97.20;;;;;;7399237;19;20015;-76
2022/09/05 08:08:52;;;;;;;8.88;4.72;;;25.10;97.20;;;;;;7394688;19;20019;-76
2022/09/05 08:11:21;;;;;;;6.32;4.63;;;25.20;97.00;;;;;;7399960;19;20022;-76
2022/09/05 08:14:09;;;;;;;5.97;4.78;;;24.70;97.30;;;;;;7401519;19;20065;-76
2022/09/05 08:16:38;;;;;;;10.00;4.63;;;24.40;97.90;;;;;;7397241;19;20478;-78
2022/09/05 08:19:49;;;;;;;4.80;4.40;;;23.90;98.80;;;;;;7400212;19;20035;-76
2022/09/05 08:22:25;;;;;;;5.43;4.30;;;23.30;99.10;;;;;;7397499;19;20026;-77
2022/09/05 08:24:58;;;;;;;5.32;4.10;;;22.90;99.40;;;;;;7395085;19;20129;-76
2022/09/05 08:27:48;;;;;;;;;;;22.60;99.70;;;;;;7397442;19;20027;-76
2022/09/05 08:30:15;;;;;;;5.97;4.32;;;22.40;99.90;;;;;;7401700;19;20287;-77
2022/09/05 08:32:56;;;;;;;5.95;3.90;;;22.50;99.90;;;;;;7400762;19;20039;-76
2022/09/05 08:35:31;;;;;;;7.15;4.50;;;22.50;99.90;;;;;;7401901;19;20086;-76
2022/09/05 08:37:58;;;;;;;7.80;4.35;;;22.60;99.90;;;;;;7396507;19;20504;-77
2022/09/05 08:40:37;;;;;;;6.18;4.55;;;22.60;99.90;;;;;;7398470;19;20036;-77
2022/09/05 08:43:35;;;;;;;6.95;4.60;;;22.60;99.90;;;;;;7400587;19;20014;-78
2022/09/05 08:46:25;;;;;;;6.97;4.45;;;22.70;99.90;;;;;;7399093;19;20021;-79
2022/09/05 08:48:53;;;;;;;8.55;4.15;;;22.80;99.90;;;;;;7395429;19;20010;-77
2022/09/05 08:51:27;;;;;;;5.82;3.80;;;22.70;99.90;;;;;;7397582;19;20026;-77
2022/09/05 08:54:26;;;;;;;6.03;4.60;;;22.90;99.90;;;;;;7399945;19;20043;-77
2022/09/05 08:57:08;;;;;;;7.50;4.78;;;22.90;99.90;;;;;;7395583;19;20368;-77
2022/09/05 09:00:04;;;;;;;4.10;3.53;;;22.90;99.90;;;;;;7400054;19;20029;-77
2022/09/05 09:03:02;;;;;;;8.07;4.70;;;23.10;99.90;;;;;;7397175;19;20025;-77
2022/09/05 09:05:53;;;;;;;7.32;4.35;;;23.20;99.90;;;;;;7397936;19;20010;-77
2022/09/05 09:08:28;;;;;;;6.80;4.63;;;23.40;99.90;;;;;;7396592;19;20370;-78
2022/09/05 09:11:03;;;;;;;7.22;4.18;;;23.40;99.90;;;;;;7397507;19;20074;-77
2022/09/05 09:13:35;;;;;;;10.00;4.55;;;23.40;99.90;;;;;;7396911;19;20035;-78
2022/09/05 09:16:29;;;;;;;7.53;4.30;;;23.60;99.90;;;;;;7398266;19;20028;-78
2022/09/05 09:19:24;;;;;;;8.00;4.65;;;23.60;99.90;;;;;;7394210;19;20035;-78
2022/09/05 09:22:22;;;;;;;6.70;3.95;;;23.60;99.90;;;;;;7396640;19;20014;-78
2022/09/05 09:24:51;;;;;;;7.45;4.45;;;23.60;99.90;;;;;;7396565;19;20007;-78
2022/09/05 09:27:22;;;;;;;6.57;4.10;;;23.60;99.90;;;;;;7397213;19;20507;-78
2022/09/05 09:29:52;;;;;;;6.78;3.92;;;23.80;99.90;;;;;;7396614;19;20368;-78
2022/09/05 09:32:23;;;;;;;7.40;3.65;;;23.90;99.90;;;;;;7399590;19;20093;-77
2022/09/05 09:35:22;;;;;;;6.35;3.90;;;24.00;99.90;;;;;;7397976;19;20026;-78
2022/09/05 09:38:08;;;;;;;7.63;4.00;;;24.10;99.70;;;;;;7396266;19;20014;-78
2022/09/05 09:41:15;;;;;;;5.22;3.92;;;24.40;99.80;;;;;;7393613;19;20034;-77
2022/09/05 09:44:10;;;;;;;5.55;3.00;;;24.40;99.50;;;;;;7396854;19;20059;-77
2022/09/05 09:46:36;;;;;;;8.27;3.90;;;24.70;99.90;;;;;;7396396;19;20041;-77
2022/09/05 09:49:07;;;;;;;8.00;3.88;;;24.80;99.40;;;;;;7398553;19;20022;-77
2022/09/05 09:51:43;;;;;;;7.03;4.35;;;24.90;99.20;;;;;;7394527;19;20039;-78
2022/09/05 09:54:47;;;;;;;5.57;3.97;;;24.90;98.80;;;;;;7397530;19;20523;-78
2022/09/05 09:57:25;;;;;;;3.42;3.13;;;24.90;98.90;;;;;;7391840;19;20026;-77
2022/09/05 10:00:08;;;;;;;7.10;3.75;;;25.10;99.10;;;;;;7398979;19;20019;-78
2022/09/05 10:02:37;;;;;;;11.82;3.95;;;25.10;98.80;;;;;;7394646;19;20011;-78
2022/09/05 10:05:18;;;;;;;6.80;3.80;;;25.30;98.80;;;;;;7399079;19;20035;-77
2022/09/05 10:08:11;;;;;;;5.45;3.80;;;25.40;97.90;;;;;;7394796;19;20010;-78
2022/09/05 10:10:43;;;;;;;7.30;3.40;;;25.30;97.80;;;;;;7395050;19;20035;-78
2022/09/05 10:13:24;;;;;;;7.35;3.53;;;25.20;98.20;;;;;;7394908;19;20015;-78
2022/09/05 10:16:04;;;;;;;8.10;3.20;;;25.30;98.50;;;;;;7398377;19;20482;-77
2022/09/05 10:18:44;;;;;;;6.13;3.28;;;25.60;98.30;;;;;;7392007;19;20007;-78
2022/09/05 10:21:24;;;;;;;7.22;4.70;;;25.70;97.90;;;;;;7391316;19;20360;-78
2022/09/05 10:23:59;;;;;;;4.85;3.30;;;25.80;98.20;;;;;;7379837;19;20395;-78
2022/09/05 10:27:14;;;;;;;7.70;3.50;;;25.90;98.10;;;;;;7394880;19;20018;-78
2022/09/05 10:29:52;;;;;;;4.05;3.05;;;25.90;97.30;;;;;;7387732;19;20031;-79
2022/09/05 10:32:37;;;;;;;5.65;3.30;;;25.90;98.00;;;;;;7396338;19;20303;-80
2022/09/05 10:35:25;;;;;;;4.53;3.30;;;25.90;98.00;;;;;;7396377;19;20048;-80
2022/09/05 10:38:01;;;;;;;6.65;3.20;;;26.00;98.20;;;;;;7388417;19;20011;-81
2022/09/05 10:40:32;;;;;;;5.75;3.25;;;26.10;97.50;;;;;;7394289;19;20051;-80
2022/09/05 10:43:11;;;;;;;6.07;3.22;;;26.10;97.50;;;;;;7391688;19;20451;-81
2022/09/05 10:46:11;;;;;;;4.15;2.95;;;26.10;97.30;;;;;;7392826;19;20358;-80
2022/09/05 10:48:51;;;;;;;6.75;3.10;;;26.20;97.00;;;;;;7393248;19;20471;-81
2022/09/05 10:51:35;;;;;;;4.68;3.20;;;26.30;97.40;;;;;;7390109;19;20366;-80
2022/09/05 10:54:06;;;;;;;6.00;3.05;;;26.50;97.40;;;;;;7391427;19;20011;-80
2022/09/05 10:56:44;;;;;;;6.53;2.80;;;26.60;97.30;;;;;;7392042;19;20341;-80
2022/09/05 10:59:17;;;;;;;6.65;2.90;;;26.70;97.30;;;;;;7394506;19;20015;-80
2022/09/05 11:01:52;;;;;;;5.78;3.25;;;26.90;97.10;;;;;;7391701;19;20014;-80
2022/09/05 11:04:56;;;;;;;6.05;2.70;;;26.80;96.60;;;;;;7391962;19;20010;-80
2022/09/05 11:07:40;;;;;;;5.50;2.70;;;26.80;96.80;;;;;;7389015;19;20015;-80
2022/09/05 11:10:12;;;;;;;4.40;2.80;;;27.00;97.20;;;;;;7390428;19;20013;-80
2022/09/05 11:13:13;;;;;;;4.75;2.70;;;27.00;96.80;;;;;;7392885;19;20034;-80
2022/09/05 11:16:02;;;;;;;5.63;2.45;;;27.10;97.00;;;;;;7393927;19;20014;-80
2022/09/05 11:18:54;;;;;;;4.10;2.42;;;27.00;95.40;;;;;;7390786;19;20010;-80
2022/09/05 11:21:41;;;;;;;5.32;2.30;;;26.70;95.50;;;;;;7392152;19;20006;-80
2022/09/05 11:24:36;;;;;;;5.25;2.63;;;26.90;96.40;;;;;;7395602;19;20097;-81
2022/09/05 11:27:19;;;;;;;4.00;2.63;;;26.90;95.70;;;;;;7393294;19;20010;-79
2022/09/05 11:29:46;;;;;;;;;;;27.00;96.10;;;;;;7394221;19;20015;-79
2022/09/05 11:32:39;;;;;;;5.32;2.40;;;27.20;95.80;;;;;;7390260;19;20483;-79
2022/09/05 11:35:16;;;;;;;4.70;2.92;;;27.30;95.90;;;;;;7393925;19;20039;-79
2022/09/05 11:38:00;;;;;;;6.72;2.50;;;27.30;95.90;;;;;;7391119;19;20010;-80
2022/09/05 11:40:48;;;;;;;5.60;2.50;;;27.50;95.80;;;;;;7391321;19;20010;-79
2022/09/05 11:43:52;;;;;;;7.53;3.33;;;27.50;95.00;;;;;;7400642;19;20025;-79
2022/09/05 11:46:38;;;;;;;3.33;2.72;;;27.40;95.10;;;;;;7401404;19;20010;-79
2022/09/05 11:49:37;;;;;;;4.57;2.83;;;27.50;95.60;;;;;;7397784;19;20037;-79
2022/09/05 11:52:29;;;;;;;4.10;2.50;;;27.70;95.30;;;;;;7399597;19;20110;-79
2022/09/05 11:55:24;;;;;;;5.38;2.78;;;27.80;95.70;;;;;;7396419;19;20019;-79
2022/09/05 11:58:18;;;;;;;6.28;3.10;;;27.90;94.80;;;;;;7396394;19;20048;-80
2022/09/05 12:01:05;;;;;;;4.20;2.58;;;27.90;95.10;;;;;;7397568;19;20014;-80
2022/09/05 12:03:53;;;;;;;3.40;2.30;;;27.90;94.60;;;;;;7401140;19;20014;-80
2022/09/05 12:06:44;;;;;;;4.22;2.50;;;27.90;94.80;;;;;;7397197;19;20018;-80
2022/09/05 12:09:42;;;;;;;2.92;2.50;;;27.90;94.40;;;;;;7395436;19;20022;-80
2022/09/05 12:12:25;;;;;;;4.30;2.50;;;28.00;94.70;;;;;;7398307;19;20752;-79
2022/09/05 12:15:00;;;;;;;4.93;2.42;;;27.90;94.50;;;;;;7398100;19;20507;-80
2022/09/05 12:17:47;;;;;;;3.40;2.50;;;28.00;94.30;;;;;;7397491;19;20014;-80
2022/09/05 12:20:17;;;;;;;4.53;2.15;;;28.20;94.60;;;;;;7399063;19;20018;-80
2022/09/05 12:23:21;;;;;;;3.92;2.28;;;28.30;94.70;;;;;;7398803;19;20033;-80
2022/09/05 12:25:56;;;;;;;4.22;2.25;;;28.20;94.10;;;;;;7398480;19;20023;-80
2022/09/05 12:28:44;;;;;;;3.80;2.70;;;28.30;94.50;;;;;;7396996;19;20014;-80
2022/09/05 12:31:27;;;;;;;6.97;3.10;;;28.50;94.30;;;;;;7399676;19;20082;-80
2022/09/05 12:33:54;;;;;;;;;;;28.50;93.90;;;;;;7398344;19;20462;-80
2022/09/05 12:36:42;;;;;;;4.03;2.58;;;28.40;93.50;;;;;;7398161;19;19925;-80
2022/09/05 12:39:11;;;;;;;7.82;2.78;;;28.40;94.20;;;;;;7396284;19;20010;-79
2022/09/05 12:41:59;;;;;;;5.25;2.47;;;28.40;94.60;;;;;;7398119;19;20041;-79
2022/09/05 12:44:45;;;;;;;4.25;2.58;;;28.60;94.40;;;;;;7399995;19;20018;-79
2022/09/05 12:47:16;;;;;;;5.75;2.63;;;28.60;94.20;;;;;;7398625;19;20010;-80
2022/09/05 12:50:01;;;;;;;3.10;2.40;;;28.60;93.60;;;;;;7396778;19;20007;-80
2022/09/05 12:52:32;;;;;;;4.93;2.50;;;28.60;93.80;;;;;;7396277;19;20373;-80
2022/09/05 12:55:32;;;;;;;2.88;2.58;;;28.60;93.80;;;;;;7397906;19;20014;-80
2022/09/05 12:58:17;;;;;;;3.83;2.65;;;28.70;94.00;;;;;;7393733;19;20038;-80
2022/09/05 13:00:47;;;;;;;6.18;2.88;;;28.80;93.80;;;;;;7395257;19;20006;-80
2022/09/05 13:03:26;;;;;;;3.33;2.45;;;28.70;93.80;;;;;;7399407;19;20015;-80
2022/09/05 13:06:13;;;;;;;4.95;2.20;;;28.80;93.90;;;;;;7395107;19;20467;-79
2022/09/05 13:08:52;;;;;;;3.58;2.40;;;28.80;93.90;;;;;;7398270;19;20375;-79
2022/09/05 13:11:20;;;;;;;5.60;2.50;;;28.80;94.10;;;;;;7399818;19;20015;-80
2022/09/05 13:14:00;;;;;;;7.53;2.40;;;28.90;93.80;;;;;;7399180;19;20086;-79
2022/09/05 13:16:28;;;;;;;3.63;2.65;;;28.90;94.00;;;;;;7396495;19;20034;-80
2022/09/05 13:19:06;;;;;;;5.53;2.63;;;29.00;93.70;;;;;;7394233;19;20015;-80
2022/09/05 13:21:38;;;;;;;4.07;2.45;;;28.80;93.40;;;;;;7392727;19;20023;-80
2022/09/05 13:24:26;;;;;;;4.38;2.20;;;28.60;93.50;;;;;;7398812;19;20022;-80
2022/09/05 13:27:07;;;;;;;3.85;2.50;;;28.60;93.50;;;;;;7388963;19;20033;-80
2022/09/05 13:29:52;;;;;;;5.20;2.53;;;28.50;93.70;;;;;;7387760;19;20010;-79
2022/09/05 13:32:29;;;;;;;5.68;2.60;;;28.70;93.90;;;;;;7394326;19;20028;-80
2022/09/05 13:35:06;;;;;;;3.35;2.33;;;28.70;93.70;;;;;;7397248;19;20496;-80
2022/09/05 13:37:41;;;;;;;3.20;2.20;;;28.70;93.70;;;;;;7393291;19;20023;-80
2022/09/05 13:40:21;;;;;;;3.03;2.50;;;28.80;93.50;;;;;;7396213;19;20366;-80
2022/09/05 13:43:09;;;;;;;4.05;2.20;;;28.80;93.30;;;;;;7396727;19;20042;-80
2022/09/05 13:46:09;;;;;;;4.72;2.10;;;28.70;93.40;;;;;;7397192;19;20018;-80
2022/09/05 13:48:36;;;;;;;2.70;2.40;;;28.80;93.50;;;;;;7394581;19;20015;-80
2022/09/05 13:51:42;;;;;;;7.07;2.80;;;28.90;93.30;;;;;;7394888;19;20035;-79
2022/09/05 13:54:11;;;;;;;8.23;2.55;;;29.00;93.50;;;;;;7393627;19;20014;-80
2022/09/05 13:56:52;;;;;;;3.83;2.72;;;29.00;93.60;;;;;;7395542;19;20078;-80
2022/09/05 13:59:20;;;;;;;3.70;2.50;;;29.10;93.30;;;;;;7395267;19;20014;-80
2022/09/05 14:01:54;;;;;;;4.97;2.53;;;29.10;93.30;;;;;;7392835;19;20479;-80
2022/09/05 14:04:41;;;;;;;3.47;2.20;;;29.20;93.10;;;;;;7398018;19;20495;-81
2022/09/05 14:07:38;;;;;;;4.60;2.40;;;29.10;93.10;;;;;;7393461;19;20305;-80
2022/09/05 14:10:29;;;;;;;4.45;2.33;;;29.10;93.20;;;;;;7394361;19;20030;-80
2022/09/05 14:13:04;;;;;;;4.05;2.22;;;28.90;93.10;;;;;;7396966;19;20019;-80